Terminal Aerodrome Forecast
Issued by NWS Cleveland, OH

Home | Current Version | Previous Version | Graphics & Text | Print | Product List | Glossary Off
Versions: 1 2 3 4 5 6 7 8 9 10 11 12 13 14 15 16 17 18 19 20

000
FTUS41 KCLE 201100 RRA
TAFERI
TAF
KERI 201141Z 2012/2112 20015G25KT P6SM SCT045 BKN250
     FM202300 20015G25KT P6SM BKN045
     FM210500 20012G22KT P6SM VCTS BKN045CB PROB30 2106/2110 3SM
      TSRA OVC035CB=

USA.gov is the U.S. government's official web portal to all federal, state and local government web resources and services.